sensor_id;sensor_type;location;lat;lon;timestamp;pressure;altitude;pressure_sealevel;temperature;humidity
68859;BME280;55864;49.238;8.092;2023-07-08T00:00:25;99352.88;;;23.99;36.07
68859;BME280;55864;49.238;8.092;2023-07-08T00:02:26;99346.34;;;23.95;35.76
68859;BME280;55864;49.238;8.092;2023-07-08T00:04:27;99349.03;;;23.95;36.02
68859;BME280;55864;49.238;8.092;2023-07-08T00:06:28;99341.31;;;23.99;35.84
68859;BME280;55864;49.238;8.092;2023-07-08T00:08:28;99337.75;;;24.05;35.97
68859;BME280;55864;49.238;8.092;2023-07-08T00:10:29;99333.09;;;24.12;35.69
68859;BME280;55864;49.238;8.092;2023-07-08T00:12:30;99334.59;;;24.08;35.79
68859;BME280;55864;49.238;8.092;2023-07-08T00:14:31;99331.91;;;24.08;35.62
68859;BME280;55864;49.238;8.092;2023-07-08T00:16:32;99334.59;;;24.08;35.35
68859;BME280;55864;49.238;8.092;2023-07-08T00:18:32;99333.66;;;24.02;35.71
68859;BME280;55864;49.238;8.092;2023-07-08T00:20:37;99330.91;;;23.91;36.00
68859;BME280;55864;49.238;8.092;2023-07-08T00:22:38;99338.72;;;23.92;36.27
68859;BME280;55864;49.238;8.092;2023-07-08T00:24:39;99341.53;;;23.86;36.28
68859;BME280;55864;49.238;8.092;2023-07-08T00:26:39;99339.44;;;23.88;36.36
68859;BME280;55864;49.238;8.092;2023-07-08T00:28:40;99346.66;;;23.87;36.29
68859;BME280;55864;49.238;8.092;2023-07-08T00:30:42;99338.59;;;23.76;37.17
68859;BME280;55864;49.238;8.092;2023-07-08T00:32:43;99339.97;;;23.67;37.01
68859;BME280;55864;49.238;8.092;2023-07-08T00:34:43;99339.84;;;23.73;36.78
68859;BME280;55864;49.238;8.092;2023-07-08T00:36:44;99345.94;;;23.69;36.97
68859;BME280;55864;49.238;8.092;2023-07-08T00:38:45;99339.38;;;23.65;37.24
68859;BME280;55864;49.238;8.092;2023-07-08T00:40:50;99342.72;;;23.90;36.89
68859;BME280;55864;49.238;8.092;2023-07-08T00:42:51;99343.66;;;23.95;36.02
68859;BME280;55864;49.238;8.092;2023-07-08T00:44:53;99338.13;;;23.90;36.10
68859;BME280;55864;49.238;8.092;2023-07-08T00:47:01;99344.91;;;23.81;35.95
68859;BME280;55864;49.238;8.092;2023-07-08T00:49:14;99348.75;;;23.85;36.05
68859;BME280;55864;49.238;8.092;2023-07-08T00:51:16;99341.50;;;23.74;35.97
68859;BME280;55864;49.238;8.092;2023-07-08T00:53:25;99346.88;;;23.74;36.39
68859;BME280;55864;49.238;8.092;2023-07-08T00:55:26;99345.06;;;23.57;37.33
68859;BME280;55864;49.238;8.092;2023-07-08T00:57:30;99345.22;;;23.62;36.75
68859;BME280;55864;49.238;8.092;2023-07-08T00:59:35;99340.59;;;23.51;36.90
68859;BME280;55864;49.238;8.092;2023-07-08T01:01:39;99342.56;;;23.44;37.14
68859;BME280;55864;49.238;8.092;2023-07-08T01:03:48;99337.44;;;23.42;37.37
68859;BME280;55864;49.238;8.092;2023-07-08T01:05:50;99337.66;;;23.41;37.46
68859;BME280;55864;49.238;8.092;2023-07-08T01:07:59;99331.84;;;23.44;37.40
68859;BME280;55864;49.238;8.092;2023-07-08T01:10:04;99325.28;;;23.40;37.47
68859;BME280;55864;49.238;8.092;2023-07-08T01:12:09;99329.31;;;23.49;37.00
68859;BME280;55864;49.238;8.092;2023-07-08T01:14:12;99321.06;;;23.62;36.84
68859;BME280;55864;49.238;8.092;2023-07-08T01:16:14;99326.31;;;23.68;37.02
68859;BME280;55864;49.238;8.092;2023-07-08T01:18:17;99324.00;;;23.72;36.64
68859;BME280;55864;49.238;8.092;2023-07-08T01:20:19;99325.13;;;23.64;36.80
68859;BME280;55864;49.238;8.092;2023-07-08T01:22:21;99324.19;;;23.59;36.68
68859;BME280;55864;49.238;8.092;2023-07-08T01:24:22;99317.66;;;23.55;37.28
68859;BME280;55864;49.238;8.092;2023-07-08T01:26:23;99323.72;;;23.50;37.44
68859;BME280;55864;49.238;8.092;2023-07-08T01:28:25;99327.97;;;23.40;37.57
68859;BME280;55864;49.238;8.092;2023-07-08T01:30:26;99329.03;;;23.39;37.40
68859;BME280;55864;49.238;8.092;2023-07-08T01:32:27;99327.69;;;23.29;37.50
68859;BME280;55864;49.238;8.092;2023-07-08T01:34:28;99328.13;;;23.26;37.51
68859;BME280;55864;49.238;8.092;2023-07-08T01:36:31;99326.16;;;23.22;37.67
68859;BME280;55864;49.238;8.092;2023-07-08T01:38:35;99324.00;;;23.12;37.87
68859;BME280;55864;49.238;8.092;2023-07-08T01:40:37;99331.34;;;23.17;38.17
68859;BME280;55864;49.238;8.092;2023-07-08T01:42:38;99324.59;;;23.14;37.85
68859;BME280;55864;49.238;8.092;2023-07-08T01:44:38;99322.16;;;23.24;37.88
68859;BME280;55864;49.238;8.092;2023-07-08T01:46:39;99329.53;;;23.29;38.02
68859;BME280;55864;49.238;8.092;2023-07-08T01:48:41;99322.03;;;23.38;37.35
68859;BME280;55864;49.238;8.092;2023-07-08T01:50:49;99318.00;;;23.28;37.22
68859;BME280;55864;49.238;8.092;2023-07-08T01:52:52;99312.88;;;23.27;37.30
68859;BME280;55864;49.238;8.092;2023-07-08T01:54:56;99314.00;;;23.19;37.15
68859;BME280;55864;49.238;8.092;2023-07-08T01:56:56;99318.03;;;23.10;37.04
68859;BME280;55864;49.238;8.092;2023-07-08T01:58:57;99315.44;;;23.04;37.36
68859;BME280;55864;49.238;8.092;2023-07-08T02:00:58;99319.53;;;23.06;37.88
68859;BME280;55864;49.238;8.092;2023-07-08T02:02:58;99319.00;;;22.98;37.54
68859;BME280;55864;49.238;8.092;2023-07-08T02:04:59;99313.44;;;22.99;37.40
68859;BME280;55864;49.238;8.092;2023-07-08T02:07:00;99318.50;;;22.89;37.04
68859;BME280;55864;49.238;8.092;2023-07-08T02:09:01;99319.63;;;22.82;37.44
68859;BME280;55864;49.238;8.092;2023-07-08T02:11:04;99313.59;;;22.86;37.62
68859;BME280;55864;49.238;8.092;2023-07-08T02:13:05;99319.88;;;22.80;38.01
68859;BME280;55864;49.238;8.092;2023-07-08T02:15:10;99324.41;;;22.80;37.63
68859;BME280;55864;49.238;8.092;2023-07-08T02:17:10;99335.00;;;22.86;37.72
68859;BME280;55864;49.238;8.092;2023-07-08T02:19:11;99330.84;;;22.90;37.56
68859;BME280;55864;49.238;8.092;2023-07-08T02:21:12;99333.97;;;23.05;37.25
68859;BME280;55864;49.238;8.092;2023-07-08T02:23:13;99337.06;;;23.20;36.61
68859;BME280;55864;49.238;8.092;2023-07-08T02:25:14;99338.44;;;23.11;36.55
68859;BME280;55864;49.238;8.092;2023-07-08T02:27:16;99341.22;;;23.05;37.01
68859;BME280;55864;49.238;8.092;2023-07-08T02:29:16;99345.97;;;23.03;37.65
68859;BME280;55864;49.238;8.092;2023-07-08T02:31:17;99351.41;;;22.96;36.80
68859;BME280;55864;49.238;8.092;2023-07-08T02:33:17;99342.84;;;22.88;37.21
68859;BME280;55864;49.238;8.092;2023-07-08T02:35:18;99345.53;;;22.88;37.08
68859;BME280;55864;49.238;8.092;2023-07-08T02:37:18;99349.47;;;22.85;36.78
68859;BME280;55864;49.238;8.092;2023-07-08T02:39:19;99344.88;;;22.74;37.15
68859;BME280;55864;49.238;8.092;2023-07-08T02:41:19;99346.34;;;22.70;37.72
68859;BME280;55864;49.238;8.092;2023-07-08T02:43:21;99344.69;;;22.69;37.17
68859;BME280;55864;49.238;8.092;2023-07-08T02:45:22;99336.66;;;22.69;37.11
68859;BME280;55864;49.238;8.092;2023-07-08T02:47:22;99344.78;;;22.63;37.54
68859;BME280;55864;49.238;8.092;2023-07-08T02:49:24;99337.94;;;22.67;37.29
68859;BME280;55864;49.238;8.092;2023-07-08T02:51:24;99341.22;;;22.69;37.22
68859;BME280;55864;49.238;8.092;2023-07-08T02:53:25;99345.09;;;22.73;37.41
68859;BME280;55864;49.238;8.092;2023-07-08T02:55:25;99340.38;;;22.86;36.78
68859;BME280;55864;49.238;8.092;2023-07-08T02:57:26;99348.72;;;22.96;36.31
68859;BME280;55864;49.238;8.092;2023-07-08T02:59:28;99344.84;;;22.92;36.77
68859;BME280;55864;49.238;8.092;2023-07-08T03:01:28;99341.66;;;22.84;37.03
68859;BME280;55864;49.238;8.092;2023-07-08T03:03:29;99341.72;;;22.77;37.28
68859;BME280;55864;49.238;8.092;2023-07-08T03:05:29;99341.34;;;22.74;37.06
68859;BME280;55864;49.238;8.092;2023-07-08T03:07:30;99347.81;;;22.66;37.05
68859;BME280;55864;49.238;8.092;2023-07-08T03:09:30;99349.91;;;22.64;37.35
68859;BME280;55864;49.238;8.092;2023-07-08T03:11:31;99346.50;;;22.57;37.52
68859;BME280;55864;49.238;8.092;2023-07-08T03:13:32;99344.84;;;22.56;37.71
68859;BME280;55864;49.238;8.092;2023-07-08T03:15:35;99343.47;;;22.47;37.77
68859;BME280;55864;49.238;8.092;2023-07-08T03:17:36;99347.63;;;22.43;37.72
68859;BME280;55864;49.238;8.092;2023-07-08T03:19:36;99350.53;;;22.41;38.01
68859;BME280;55864;49.238;8.092;2023-07-08T03:21:37;99356.25;;;22.45;37.85
68859;BME280;55864;49.238;8.092;2023-07-08T03:23:38;99352.75;;;22.44;37.14
68859;BME280;55864;49.238;8.092;2023-07-08T03:25:39;99351.78;;;22.39;37.61
68859;BME280;55864;49.238;8.092;2023-07-08T03:27:40;99357.91;;;22.46;37.67
68859;BME280;55864;49.238;8.092;2023-07-08T03:29:40;99353.47;;;22.58;37.58
68859;BME280;55864;49.238;8.092;2023-07-08T03:31:43;99356.00;;;22.71;37.57
68859;BME280;55864;49.238;8.092;2023-07-08T03:33:44;99356.59;;;22.73;37.30
68859;BME280;55864;49.238;8.092;2023-07-08T03:35:45;99353.31;;;22.71;36.56
68859;BME280;55864;49.238;8.092;2023-07-08T03:37:45;99352.81;;;22.63;37.06
68859;BME280;55864;49.238;8.092;2023-07-08T03:39:46;99350.00;;;22.58;37.43
68859;BME280;55864;49.238;8.092;2023-07-08T03:41:47;99347.09;;;22.59;37.42
68859;BME280;55864;49.238;8.092;2023-07-08T03:43:48;99349.38;;;22.56;37.51
68859;BME280;55864;49.238;8.092;2023-07-08T03:45:50;99348.09;;;22.58;37.42
68859;BME280;55864;49.238;8.092;2023-07-08T03:49:53;99346.09;;;22.54;37.44
68859;BME280;55864;49.238;8.092;2023-07-08T03:51:55;99351.44;;;22.54;38.07
68859;BME280;55864;49.238;8.092;2023-07-08T03:53:55;99351.84;;;22.57;37.52
68859;BME280;55864;49.238;8.092;2023-07-08T03:55:57;99347.72;;;22.55;37.79
68859;BME280;55864;49.238;8.092;2023-07-08T03:57:58;99355.53;;;22.56;36.95
68859;BME280;55864;49.238;8.092;2023-07-08T04:00:00;99361.59;;;22.45;37.73
68859;BME280;55864;49.238;8.092;2023-07-08T04:02:01;99355.22;;;22.46;37.37
68859;BME280;55864;49.238;8.092;2023-07-08T04:04:04;99354.06;;;22.60;38.17
68859;BME280;55864;49.238;8.092;2023-07-08T04:06:08;99363.38;;;22.76;37.89
68859;BME280;55864;49.238;8.092;2023-07-08T04:08:09;99362.13;;;22.78;37.76
68859;BME280;55864;49.238;8.092;2023-07-08T04:10:10;99358.56;;;22.84;37.41
68859;BME280;55864;49.238;8.092;2023-07-08T04:12:11;99359.66;;;22.77;37.41
68859;BME280;55864;49.238;8.092;2023-07-08T04:14:12;99359.44;;;22.78;37.45
68859;BME280;55864;49.238;8.092;2023-07-08T04:16:17;99360.25;;;22.79;37.85
68859;BME280;55864;49.238;8.092;2023-07-08T04:18:18;99361.59;;;22.70;38.54
68859;BME280;55864;49.238;8.092;2023-07-08T04:20:21;99358.31;;;22.68;38.32
68859;BME280;55864;49.238;8.092;2023-07-08T04:22:21;99354.59;;;22.69;37.90
68859;BME280;55864;49.238;8.092;2023-07-08T04:24:22;99350.97;;;22.63;38.56
68859;BME280;55864;49.238;8.092;2023-07-08T04:26:22;99353.56;;;22.70;38.26
68859;BME280;55864;49.238;8.092;2023-07-08T04:28:23;99351.34;;;22.67;38.48
68859;BME280;55864;49.238;8.092;2023-07-08T04:30:25;99364.63;;;22.73;38.44
68859;BME280;55864;49.238;8.092;2023-07-08T04:32:26;99359.38;;;22.67;38.93
68859;BME280;55864;49.238;8.092;2023-07-08T04:34:26;99359.59;;;22.65;38.67
68859;BME280;55864;49.238;8.092;2023-07-08T04:36:28;99358.63;;;22.60;38.90
68859;BME280;55864;49.238;8.092;2023-07-08T04:38:29;99350.81;;;22.76;38.80
68859;BME280;55864;49.238;8.092;2023-07-08T04:40:29;99353.56;;;22.88;39.67
68859;BME280;55864;49.238;8.092;2023-07-08T04:42:30;99352.66;;;22.94;39.84
68859;BME280;55864;49.238;8.092;2023-07-08T04:44:30;99355.72;;;22.97;40.78
68859;BME280;55864;49.238;8.092;2023-07-08T04:46:34;99352.72;;;23.05;41.84
68859;BME280;55864;49.238;8.092;2023-07-08T04:48:36;99355.13;;;22.95;42.88
68859;BME280;55864;49.238;8.092;2023-07-08T04:50:37;99361.47;;;23.01;44.63
68859;BME280;55864;49.238;8.092;2023-07-08T04:52:39;99370.84;;;22.92;44.73
68859;BME280;55864;49.238;8.092;2023-07-08T04:54:39;99367.16;;;22.86;44.91
68859;BME280;55864;49.238;8.092;2023-07-08T04:56:41;99375.94;;;22.75;45.14
68859;BME280;55864;49.238;8.092;2023-07-08T04:58:42;99385.19;;;22.79;45.11
68859;BME280;55864;49.238;8.092;2023-07-08T05:00:43;99389.94;;;22.77;44.22
68859;BME280;55864;49.238;8.092;2023-07-08T05:02:43;99398.06;;;22.71;44.29
68859;BME280;55864;49.238;8.092;2023-07-08T05:04:44;99400.06;;;22.75;45.45
68859;BME280;55864;49.238;8.092;2023-07-08T05:06:44;99400.75;;;22.71;45.49
68859;BME280;55864;49.238;8.092;2023-07-08T05:08:46;99408.09;;;22.75;44.75
68859;BME280;55864;49.238;8.092;2023-07-08T05:10:47;99414.28;;;22.76;44.83
68859;BME280;55864;49.238;8.092;2023-07-08T05:12:48;99424.16;;;22.75;44.52
68859;BME280;55864;49.238;8.092;2023-07-08T05:14:48;99431.97;;;22.77;44.73
68859;BME280;55864;49.238;8.092;2023-07-08T05:16:49;99446.28;;;22.89;45.29
68859;BME280;55864;49.238;8.092;2023-07-08T05:18:49;99453.31;;;22.90;45.37
68859;BME280;55864;49.238;8.092;2023-07-08T05:20:50;99462.38;;;22.89;44.79
68859;BME280;55864;49.238;8.092;2023-07-08T05:22:51;99475.66;;;22.77;44.80
68859;BME280;55864;49.238;8.092;2023-07-08T05:24:53;99473.91;;;22.89;44.64
68859;BME280;55864;49.238;8.092;2023-07-08T05:26:54;99473.09;;;22.89;44.83
68859;BME280;55864;49.238;8.092;2023-07-08T05:28:54;99470.41;;;22.89;45.42
68859;BME280;55864;49.238;8.092;2023-07-08T05:30:55;99452.78;;;22.99;45.34
68859;BME280;55864;49.238;8.092;2023-07-08T05:32:56;99458.72;;;22.83;47.66
68859;BME280;55864;49.238;8.092;2023-07-08T05:34:56;99467.16;;;22.62;50.39
68859;BME280;55864;49.238;8.092;2023-07-08T05:36:57;99465.16;;;22.58;50.13
68859;BME280;55864;49.238;8.092;2023-07-08T05:38:58;99469.25;;;22.54;53.95
68859;BME280;55864;49.238;8.092;2023-07-08T05:40:59;99471.38;;;22.45;57.04
68859;BME280;55864;49.238;8.092;2023-07-08T05:43:00;99481.69;;;22.41;58.80
68859;BME280;55864;49.238;8.092;2023-07-08T05:45:01;99483.13;;;22.44;59.04
68859;BME280;55864;49.238;8.092;2023-07-08T05:47:02;99487.53;;;22.32;60.12
68859;BME280;55864;49.238;8.092;2023-07-08T05:49:03;99492.34;;;22.23;61.31
68859;BME280;55864;49.238;8.092;2023-07-08T05:51:03;99510.19;;;22.29;61.04
68859;BME280;55864;49.238;8.092;2023-07-08T05:53:04;99501.28;;;22.42;61.22
68859;BME280;55864;49.238;8.092;2023-07-08T05:55:05;99490.56;;;22.42;61.72
68859;BME280;55864;49.238;8.092;2023-07-08T05:57:08;99489.78;;;22.04;62.84
68859;BME280;55864;49.238;8.092;2023-07-08T05:59:09;99478.59;;;22.13;63.25
68859;BME280;55864;49.238;8.092;2023-07-08T06:01:10;99473.13;;;22.02;64.01
68859;BME280;55864;49.238;8.092;2023-07-08T06:03:10;99474.88;;;21.83;65.85
68859;BME280;55864;49.238;8.092;2023-07-08T06:05:11;99484.94;;;21.88;66.17
68859;BME280;55864;49.238;8.092;2023-07-08T06:07:11;99486.41;;;21.77;66.47
68859;BME280;55864;49.238;8.092;2023-07-08T06:09:12;99501.00;;;21.75;66.04
68859;BME280;55864;49.238;8.092;2023-07-08T06:11:12;99495.53;;;21.63;65.93
68859;BME280;55864;49.238;8.092;2023-07-08T06:13:14;99506.41;;;21.62;65.43
68859;BME280;55864;49.238;8.092;2023-07-08T06:15:15;99494.53;;;21.51;66.18
68859;BME280;55864;49.238;8.092;2023-07-08T06:17:16;99490.00;;;21.51;64.84
68859;BME280;55864;49.238;8.092;2023-07-08T06:19:16;99495.88;;;20.96;65.76
68859;BME280;55864;49.238;8.092;2023-07-08T06:21:17;99488.91;;;20.89;64.67
68859;BME280;55864;49.238;8.092;2023-07-08T06:23:17;99479.44;;;20.53;63.49
68859;BME280;55864;49.238;8.092;2023-07-08T06:25:18;99480.28;;;20.54;63.57
68859;BME280;55864;49.238;8.092;2023-07-08T06:27:18;99466.34;;;20.58;63.94
68859;BME280;55864;49.238;8.092;2023-07-08T06:29:20;99472.47;;;20.79;63.87
68859;BME280;55864;49.238;8.092;2023-07-08T06:31:21;99462.22;;;20.63;64.16
68859;BME280;55864;49.238;8.092;2023-07-08T06:33:21;99457.88;;;20.75;64.64
68859;BME280;55864;49.238;8.092;2023-07-08T06:35:22;99451.31;;;20.77;64.10
68859;BME280;55864;49.238;8.092;2023-07-08T06:37:22;99451.09;;;20.79;64.60
68859;BME280;55864;49.238;8.092;2023-07-08T06:39:23;99456.25;;;20.87;64.29
68859;BME280;55864;49.238;8.092;2023-07-08T06:41:24;99463.00;;;20.76;64.83
68859;BME280;55864;49.238;8.092;2023-07-08T06:43:24;99457.69;;;20.83;65.51
68859;BME280;55864;49.238;8.092;2023-07-08T06:45:31;99457.47;;;20.91;65.24
68859;BME280;55864;49.238;8.092;2023-07-08T06:47:32;99466.94;;;20.67;65.81
68859;BME280;55864;49.238;8.092;2023-07-08T06:49:32;99450.69;;;20.95;65.82
68859;BME280;55864;49.238;8.092;2023-07-08T06:51:33;99458.28;;;21.04;64.56
68859;BME280;55864;49.238;8.092;2023-07-08T06:53:34;99451.03;;;21.18;64.76
68859;BME280;55864;49.238;8.092;2023-07-08T06:55:34;99447.19;;;21.14;65.14
68859;BME280;55864;49.238;8.092;2023-07-08T06:57:35;99443.19;;;21.29;65.15
68859;BME280;55864;49.238;8.092;2023-07-08T06:59:36;99438.84;;;21.35;65.60
68859;BME280;55864;49.238;8.092;2023-07-08T07:01:38;99432.41;;;21.56;65.75
68859;BME280;55864;49.238;8.092;2023-07-08T07:03:40;99431.72;;;21.29;66.54
68859;BME280;55864;49.238;8.092;2023-07-08T07:05:41;99444.00;;;21.36;67.37
68859;BME280;55864;49.238;8.092;2023-07-08T07:07:41;99446.03;;;21.47;66.98
68859;BME280;55864;49.238;8.092;2023-07-08T07:09:42;99438.16;;;21.52;67.42
68859;BME280;55864;49.238;8.092;2023-07-08T07:11:42;99437.22;;;21.78;66.78
68859;BME280;55864;49.238;8.092;2023-07-08T07:13:43;99439.31;;;21.76;66.70
68859;BME280;55864;49.238;8.092;2023-07-08T07:15:43;99442.72;;;21.90;65.46
68859;BME280;55864;49.238;8.092;2023-07-08T07:17:45;99436.72;;;22.01;64.62
68859;BME280;55864;49.238;8.092;2023-07-08T07:19:46;99443.84;;;22.38;64.24
68859;BME280;55864;49.238;8.092;2023-07-08T07:21:46;99452.88;;;22.37;63.59
68859;BME280;55864;49.238;8.092;2023-07-08T07:23:47;99446.69;;;22.68;64.26
68859;BME280;55864;49.238;8.092;2023-07-08T07:25:47;99450.53;;;22.78;61.75
68859;BME280;55864;49.238;8.092;2023-07-08T07:27:48;99446.97;;;23.02;62.08
68859;BME280;55864;49.238;8.092;2023-07-08T07:29:50;99452.81;;;23.35;61.90
68859;BME280;55864;49.238;8.092;2023-07-08T07:31:50;99458.63;;;23.32;60.58
68859;BME280;55864;49.238;8.092;2023-07-08T07:33:52;99453.41;;;23.56;60.45
68859;BME280;55864;49.238;8.092;2023-07-08T07:35:53;99463.97;;;23.51;59.65
68859;BME280;55864;49.238;8.092;2023-07-08T07:37:53;99464.88;;;23.63;59.07
68859;BME280;55864;49.238;8.092;2023-07-08T07:39:54;99472.31;;;23.61;59.20
68859;BME280;55864;49.238;8.092;2023-07-08T07:41:54;99466.72;;;23.62;59.05
68859;BME280;55864;49.238;8.092;2023-07-08T07:43:55;99465.28;;;23.78;58.96
68859;BME280;55864;49.238;8.092;2023-07-08T07:45:55;99469.06;;;23.88;58.05
68859;BME280;55864;49.238;8.092;2023-07-08T07:47:56;99471.38;;;24.03;57.50
68859;BME280;55864;49.238;8.092;2023-07-08T07:49:58;99469.66;;;24.20;58.45
68859;BME280;55864;49.238;8.092;2023-07-08T07:51:58;99477.72;;;24.20;57.88
68859;BME280;55864;49.238;8.092;2023-07-08T07:53:59;99477.16;;;24.00;58.21
68859;BME280;55864;49.238;8.092;2023-07-08T07:56:01;99468.25;;;24.17;58.71
68859;BME280;55864;49.238;8.092;2023-07-08T07:58:02;99476.59;;;24.39;57.57
68859;BME280;55864;49.238;8.092;2023-07-08T08:00:03;99466.31;;;24.36;57.08
68859;BME280;55864;49.238;8.092;2023-07-08T08:02:14;99467.75;;;24.50;57.06
68859;BME280;55864;49.238;8.092;2023-07-08T08:04:14;99468.00;;;24.60;57.02
68859;BME280;55864;49.238;8.092;2023-07-08T08:06:16;99469.78;;;24.78;56.16
68859;BME280;55864;49.238;8.092;2023-07-08T08:08:17;99473.88;;;24.80;55.55
68859;BME280;55864;49.238;8.092;2023-07-08T08:10:17;99471.28;;;24.74;54.29
68859;BME280;55864;49.238;8.092;2023-07-08T08:12:18;99480.28;;;25.26;54.08
68859;BME280;55864;49.238;8.092;2023-07-08T08:14:18;99474.81;;;25.21;53.23
68859;BME280;55864;49.238;8.092;2023-07-08T08:16:19;99467.75;;;25.43;52.44
68859;BME280;55864;49.238;8.092;2023-07-08T08:18:19;99468.75;;;25.65;51.93
68859;BME280;55864;49.238;8.092;2023-07-08T08:20:22;99465.09;;;25.99;52.21
68859;BME280;55864;49.238;8.092;2023-07-08T08:22:24;99468.94;;;26.31;49.71
68859;BME280;55864;49.238;8.092;2023-07-08T08:24:24;99476.81;;;26.49;49.48
68859;BME280;55864;49.238;8.092;2023-07-08T08:26:25;99481.69;;;26.19;48.87
68859;BME280;55864;49.238;8.092;2023-07-08T08:28:25;99478.97;;;26.19;50.13
68859;BME280;55864;49.238;8.092;2023-07-08T08:30:26;99479.94;;;26.74;49.54
68859;BME280;55864;49.238;8.092;2023-07-08T08:32:26;99483.28;;;26.81;48.84
68859;BME280;55864;49.238;8.092;2023-07-08T08:34:27;99481.00;;;27.28;47.53
68859;BME280;55864;49.238;8.092;2023-07-08T08:36:27;99473.59;;;26.69;49.53
68859;BME280;55864;49.238;8.092;2023-07-08T08:38:29;99481.25;;;27.27;48.19
68859;BME280;55864;49.238;8.092;2023-07-08T08:40:31;99484.63;;;27.17;47.27
68859;BME280;55864;49.238;8.092;2023-07-08T08:42:38;99486.13;;;27.30;48.69
68859;BME280;55864;49.238;8.092;2023-07-08T08:44:39;99487.09;;;28.05;46.42
68859;BME280;55864;49.238;8.092;2023-07-08T08:46:45;99486.19;;;27.95;45.59
68859;BME280;55864;49.238;8.092;2023-07-08T08:48:55;99496.72;;;27.96;45.33
68859;BME280;55864;49.238;8.092;2023-07-08T08:51:00;99493.16;;;28.44;44.97
68859;BME280;55864;49.238;8.092;2023-07-08T08:53:05;99485.13;;;29.22;43.53
68859;BME280;55864;49.238;8.092;2023-07-08T08:55:13;99484.06;;;28.87;43.91
68859;BME280;55864;49.238;8.092;2023-07-08T08:57:25;99488.34;;;29.14;42.05
68859;BME280;55864;49.238;8.092;2023-07-08T08:59:37;99493.78;;;29.24;41.31
68859;BME280;55864;49.238;8.092;2023-07-08T09:01:38;99494.06;;;29.23;42.32
68859;BME280;55864;49.238;8.092;2023-07-08T09:03:43;99490.59;;;29.27;42.56
68859;BME280;55864;49.238;8.092;2023-07-08T09:05:46;99488.16;;;29.31;43.25
68859;BME280;55864;49.238;8.092;2023-07-08T09:08:04;99495.97;;;28.86;43.50
68859;BME280;55864;49.238;8.092;2023-07-08T09:10:10;99493.31;;;29.32;43.74
68859;BME280;55864;49.238;8.092;2023-07-08T09:12:20;99495.53;;;29.45;43.83
68859;BME280;55864;49.238;8.092;2023-07-08T09:14:24;99507.00;;;30.70;41.27
68859;BME280;55864;49.238;8.092;2023-07-08T09:16:34;99503.47;;;30.79;40.31
68859;BME280;55864;49.238;8.092;2023-07-08T09:18:43;99506.75;;;31.01;39.28
68859;BME280;55864;49.238;8.092;2023-07-08T09:20:45;99502.88;;;31.37;37.91
68859;BME280;55864;49.238;8.092;2023-07-08T09:22:49;99504.88;;;30.87;40.05
68859;BME280;55864;49.238;8.092;2023-07-08T09:24:58;99507.53;;;30.82;39.00
68859;BME280;55864;49.238;8.092;2023-07-08T09:27:01;99504.84;;;30.97;39.62
68859;BME280;55864;49.238;8.092;2023-07-08T09:29:08;99498.28;;;31.28;39.55
68859;BME280;55864;49.238;8.092;2023-07-08T09:31:22;99506.41;;;31.38;39.23
68859;BME280;55864;49.238;8.092;2023-07-08T09:33:24;99502.53;;;31.64;39.15
68859;BME280;55864;49.238;8.092;2023-07-08T09:35:26;99497.75;;;31.95;38.09
68859;BME280;55864;49.238;8.092;2023-07-08T09:37:29;99498.91;;;30.85;39.05
68859;BME280;55864;49.238;8.092;2023-07-08T09:39:30;99505.31;;;31.29;38.62
68859;BME280;55864;49.238;8.092;2023-07-08T09:41:32;99504.38;;;31.69;38.02
68859;BME280;55864;49.238;8.092;2023-07-08T09:43:34;99497.19;;;31.14;38.51
68859;BME280;55864;49.238;8.092;2023-07-08T09:45:44;99502.88;;;32.06;37.07
68859;BME280;55864;49.238;8.092;2023-07-08T09:47:46;99503.72;;;31.18;38.09
68859;BME280;55864;49.238;8.092;2023-07-08T09:49:47;99505.25;;;31.64;37.67
68859;BME280;55864;49.238;8.092;2023-07-08T09:51:48;99505.03;;;32.04;36.05
68859;BME280;55864;49.238;8.092;2023-07-08T09:53:49;99505.41;;;31.83;36.96
68859;BME280;55864;49.238;8.092;2023-07-08T09:55:50;99501.84;;;31.97;36.15
68859;BME280;55864;49.238;8.092;2023-07-08T09:57:53;99506.59;;;31.62;36.66
68859;BME280;55864;49.238;8.092;2023-07-08T09:59:55;99505.66;;;31.96;36.42
68859;BME280;55864;49.238;8.092;2023-07-08T10:02:01;99499.69;;;31.84;36.37
68859;BME280;55864;49.238;8.092;2023-07-08T10:04:03;99502.91;;;32.01;36.48
68859;BME280;55864;49.238;8.092;2023-07-08T10:06:08;99498.94;;;31.69;36.80
68859;BME280;55864;49.238;8.092;2023-07-08T10:08:16;99499.69;;;31.94;35.64
68859;BME280;55864;49.238;8.092;2023-07-08T10:10:25;99491.44;;;31.51;36.01
68859;BME280;55864;49.238;8.092;2023-07-08T10:12:26;99497.50;;;32.35;35.86
68859;BME280;55864;49.238;8.092;2023-07-08T10:14:31;99496.78;;;32.63;34.65
68859;BME280;55864;49.238;8.092;2023-07-08T10:16:35;99494.56;;;32.70;34.84
68859;BME280;55864;49.238;8.092;2023-07-08T10:18:37;99483.38;;;33.29;33.98
68859;BME280;55864;49.238;8.092;2023-07-08T10:20:45;99497.94;;;32.57;34.60
68859;BME280;55864;49.238;8.092;2023-07-08T10:22:59;99490.84;;;33.42;33.14
68859;BME280;55864;49.238;8.092;2023-07-08T10:25:12;99494.22;;;33.34;33.09
68859;BME280;55864;49.238;8.092;2023-07-08T10:27:18;99495.03;;;33.58;32.80
68859;BME280;55864;49.238;8.092;2023-07-08T10:29:25;99497.44;;;33.83;31.82
68859;BME280;55864;49.238;8.092;2023-07-08T10:31:33;99489.00;;;34.03;32.03
68859;BME280;55864;49.238;8.092;2023-07-08T10:33:56;99487.78;;;33.72;32.83
68859;BME280;55864;49.238;8.092;2023-07-08T10:36:11;99499.75;;;33.95;32.51
68859;BME280;55864;49.238;8.092;2023-07-08T10:38:39;99492.25;;;34.43;32.39
68859;BME280;55864;49.238;8.092;2023-07-08T10:40:48;99491.84;;;34.68;30.19
68859;BME280;55864;49.238;8.092;2023-07-08T10:43:13;99498.31;;;34.02;31.49
68859;BME280;55864;49.238;8.092;2023-07-08T10:45:23;99493.78;;;32.98;32.66
68859;BME280;55864;49.238;8.092;2023-07-08T10:47:35;99492.13;;;33.97;31.45
68859;BME280;55864;49.238;8.092;2023-07-08T10:49:58;99492.19;;;34.29;31.51